Saturday, November 18, 2017, 1:27 AM EST
Back to Local

KPQI, Presque Isle

Location: Presque Isle, ME, United States Lat: 46.683
Local Time: 1:27 AM EST ( 6:27 GMT) Lon: -68.05
Time Zone: US/Eastern Elev: 534 ft

Show me the last for .
Show Decoded

2017-11-18 00:56 METAR KPQI 180556Z AUTO 30012G17KT 10SM BKN022 M06/M09 A2977 RMK AO2 SLP127
                 60000 T10561089 11028 21056 50002 FZRANO =
2017-11-17 23:56 METAR KPQI 180456Z AUTO 29012G17KT 10SM OVC024 M04/M08 A2980 RMK AO2 SLP135
                 T10441083 400171044 FZRANO =
2017-11-17 22:56 METAR KPQI 180356Z AUTO 30013G21KT 10SM OVC024 M04/M08 A2978 RMK AO2 SLP129
                 T10391083 FZRANO =
2017-11-17 21:56 METAR KPQI 180256Z AUTO 30014G21KT 10SM OVC024 M04/M08 A2976 RMK AO2 SLP124
                 60000 T10391083 50017 FZRANO =
2017-11-17 20:56 METAR KPQI 180156Z AUTO 29009G19KT 10SM OVC022 M03/M07 A2977 RMK AO2 PK WND
                 29026/0122 SLP125 T10331072 FZRANO =
2017-11-17 19:56 METAR KPQI 180056Z AUTO 29010G18KT 10SM OVC022 M03/M07 A2975 RMK AO2 SNE14
                 SLP117 P0000 T10281067 FZRANO =
2017-11-17 18:56 METAR KPQI 172356Z AUTO 30013G24KT 9SM -SN OVC024 M03/M06 A2971 RMK AO2 PK WND
                 29027/2319 SLP107 P0000 60000 T10281061 10006 21028 51019 FZRANO =
2017-11-17 17:56 METAR KPQI 172256Z AUTO 30013G24KT 9SM -SN OVC024 M02/M06 A2970 RMK AO2 PK WND
                 30027/2216 SNB20 SLP100 P0000 T10221056 FZRANO =
2017-11-17 16:56 METAR KPQI 172156Z AUTO 31013G26KT 10SM OVC022 M02/M05 A2968 RMK AO2 PK WND
                 32027/2058 SLP095 T10171050 FZRANO =
2017-11-17 15:56 METAR KPQI 172056Z AUTO 31014G25KT 10SM OVC022 M01/M04 A2966 RMK AO2 PK WND
                 32030/2011 SLP087 T10111044 53028 FZRANO =
2017-11-17 14:56 METAR KPQI 171956Z AUTO 31019G27KT 10SM OVC020 M01/M04 A2963 RMK AO2 PK WND
                 29032/1939 SLP076 T10111044 FZRANO =
2017-11-17 13:56 METAR KPQI 171856Z AUTO 31016G33KT 10SM OVC018 M01/M03 A2960 RMK AO2 PK WND
                 29033/1854 SLP068 T10061033 FZRANO =
2017-11-17 12:56 METAR KPQI 171756Z AUTO 30013G20KT 10SM OVC020 01/M02 A2958 RMK AO2 PK WND
                 32027/1740 SNE1658 SLP060 P0000 60004 T00061022 10011 20006 53007 FZRANO =
2017-11-17 11:56 METAR KPQI 171656Z AUTO 30018G24KT 9SM -SN BKN018 OVC022 01/M02 A2956 RMK AO2 PK
                 WND 33029/1628 SLP055 P0000 T00061017 FZRANO =
2017-11-17 11:15 METAR KPQI 171615Z AUTO 30017G24KT 3SM -SN BR OVC014 01/M01 A2956 RMK AO2 P0000
                 FZRANO =
2017-11-17 11:07 METAR KPQI 171607Z AUTO 31013G22KT 2 1/2SM -SN BR OVC016 01/M01 A2956 RMK AO2
                 P0000 FZRANO =
2017-11-17 10:56 METAR KPQI 171556Z AUTO 30016G23KT 4SM -SN BR OVC016 01/M01 A2956 RMK AO2
                 RAB11E47SNE11B47 SLP055 P0000 T00061006 FZRANO =
2017-11-17 10:35 METAR KPQI 171535Z AUTO 32017G23KT 10SM -RA OVC016 01/00 A2956 RMK AO2
                 RAB11SNE11 P0000 FZRANO =
2017-11-17 09:56 METAR KPQI 171456Z AUTO 31013G22KT 8SM -SN FEW009 OVC014 01/01 A2956 RMK AO2 PK
                 WND 31026/1438 RAB37E51UPB51E52SNE37B52 SLP053 P0000 60004 T00110006 53010
                 FZRANO =
2017-11-17 09:46 METAR KPQI 171446Z AUTO 32016G26KT 10SM -RA BKN013 OVC019 01/01 A2955 RMK AO2 PK
                 WND 31026/1438 RAB37SNE37 P0000 FZRANO =
2017-11-17 09:32 METAR KPQI 171432Z AUTO 32016G23KT 7SM -SN SCT009 BKN015 OVC021 01/01 A2955 RMK
                 AO2 P0000 FZRANO =
2017-11-17 09:25 METAR KPQI 171425Z AUTO 32015G25KT 5SM -SN BR SCT011 BKN015 OVC021 01/01 A2955
                 RMK AO2 P0000 FZRANO =
2017-11-17 08:56 METAR KPQI 171356Z AUTO 32016G25KT 3SM -SN BR OVC009 01/00 A2954 RMK AO2 CIG
                 006V012 SLP047 P0002 T00060000 FZRANO =
2017-11-17 08:52 METAR KPQI 171352Z AUTO 32015G19KT 3SM -SN BR BKN009 OVC015 01/00 A2954 RMK AO2
                 CIG 006V012 P0002 FZRANO =
2017-11-17 08:35 METAR KPQI 171335Z AUTO 32015G19KT 2 1/2SM -SN BR BKN009 OVC014 01/00 A2954 RMK
                 AO2 VIS 2V3 CIG 007V011 P0002 FZRANO =
2017-11-17 08:13 METAR KPQI 171313Z AUTO 32015G21KT 4SM -SN BR BKN009 OVC014 01/00 A2953 RMK AO2
                 CIG 007V011 P0001 FZRANO =
2017-11-17 08:04 METAR KPQI 171304Z AUTO 32015G21KT 4SM -SN BR OVC011 01/00 A2953 RMK AO2 P0001
                 FZRANO =
2017-11-17 07:56 METAR KPQI 171256Z AUTO 32015G21KT 4SM -SN BR BKN009 OVC014 01/00 A2953 RMK AO2
                 CIG 006V012 SLP043 P0002 T00060000 FZRANO =
2017-11-17 07:47 METAR KPQI 171247Z AUTO 32014G22KT 3SM -SN BR BKN008 OVC013 01/00 A2952 RMK AO2
                 P0002 FZRANO =
2017-11-17 07:38 METAR KPQI 171238Z AUTO 32017G22KT 4SM -SN BR BKN010 OVC015 01/00 A2952 RMK AO2
                 CIG 006V012 P0002 FZRANO =
2017-11-17 07:14 METAR KPQI 171214Z AUTO 32018G23KT 3SM -SN BR OVC008 01/00 A2951 RMK AO2 CIG
                 006V013 P0001 FZRANO =
2017-11-17 06:56 METAR KPQI 171156Z AUTO 33015G23KT 2 1/2SM -SN BR BKN008 OVC014 01/00 A2950 RMK
                 AO2 CIG 007V011 SLP035 P0002 60025 70071 T00060000 10017 20000 53006 FZRANO =
2017-11-17 05:56 METAR KPQI 171056Z AUTO 32013G21KT 4SM -SN BR OVC008 01/00 A2948 RMK AO2 SLP026
                 P0003 T00060000 FZRANO =
2017-11-17 04:56 METAR KPQI 170956Z AUTO 32012G18KT 4SM -SN BR OVC006 01/00 A2948 RMK AO2 CIG
                 005V010 SLP026 P0005 T00060000 FZRANO =
2017-11-17 04:30 METAR KPQI 170930Z AUTO 32011KT 4SM -SN BR BKN006 OVC018 00/00 A2948 RMK AO2
                 P0003 FZRANO =
2017-11-17 03:56 METAR KPQI 170856Z AUTO 32012KT 3SM -SN BR SCT006 OVC027 01/00 A2948 RMK AO2
                 SLP029 P0007 60015 T00060000 56020 FZRANO =
2017-11-17 02:56 METAR KPQI 170756Z AUTO 34010KT 8SM -SN BKN006 OVC028 01/01 A2950 RMK AO2
                 RAE56SNB56 SLP034 P0003 T00110006 FZRANO =
2017-11-17 01:56 METAR KPQI 170656Z AUTO 34010KT 9SM -RA BKN006 OVC029 02/01 A2952 RMK AO2 SLP038
                 P0005 T00170011 FZRANO =
2017-11-17 01:44 METAR KPQI 170644Z AUTO 36006KT 10SM -RA FEW006 OVC029 02/01 A2954 RMK AO2 P0005
                 FZRANO =

Support USWX by starting your Amazon purchase here.